sensor_id;sensor_type;location;lat;lon;timestamp;pressure;altitude;pressure_sealevel;temperature;humidity
54512;BME280;40419;47.438;19.026;2023-07-20T00:00:58;99120.22;;;23.16;85.28
54512;BME280;40419;47.438;19.026;2023-07-20T00:03:25;99116.75;;;23.10;85.08
54512;BME280;40419;47.438;19.026;2023-07-20T00:05:54;99124.09;;;23.15;84.89
54512;BME280;40419;47.438;19.026;2023-07-20T00:08:21;99126.56;;;23.30;84.18
54512;BME280;40419;47.438;19.026;2023-07-20T00:10:47;99131.84;;;23.13;84.28
54512;BME280;40419;47.438;19.026;2023-07-20T00:13:13;99118.66;;;23.10;84.31
54512;BME280;40419;47.438;19.026;2023-07-20T00:15:43;99119.84;;;23.04;84.55
54512;BME280;40419;47.438;19.026;2023-07-20T00:18:16;99114.22;;;22.95;85.45
54512;BME280;40419;47.438;19.026;2023-07-20T00:20:46;99105.53;;;23.01;85.19
54512;BME280;40419;47.438;19.026;2023-07-20T00:23:16;99107.69;;;22.91;86.01
54512;BME280;40419;47.438;19.026;2023-07-20T00:25:41;99106.03;;;22.90;86.80
54512;BME280;40419;47.438;19.026;2023-07-20T00:28:09;99105.66;;;22.96;86.72
54512;BME280;40419;47.438;19.026;2023-07-20T00:30:40;99107.38;;;22.92;85.94
54512;BME280;40419;47.438;19.026;2023-07-20T00:33:10;99117.59;;;22.92;85.93
54512;BME280;40419;47.438;19.026;2023-07-20T00:35:37;99117.88;;;22.90;86.46
54512;BME280;40419;47.438;19.026;2023-07-20T00:38:05;99125.81;;;22.78;87.16
54512;BME280;40419;47.438;19.026;2023-07-20T00:40:37;99130.66;;;22.86;87.54
54512;BME280;40419;47.438;19.026;2023-07-20T00:43:10;99116.41;;;22.65;88.08
54512;BME280;40419;47.438;19.026;2023-07-20T00:45:36;99117.28;;;22.60;88.15
54512;BME280;40419;47.438;19.026;2023-07-20T00:48:04;99115.00;;;22.48;89.33
54512;BME280;40419;47.438;19.026;2023-07-20T00:50:31;99121.06;;;22.32;90.92
54512;BME280;40419;47.438;19.026;2023-07-20T00:52:59;99112.91;;;22.40;91.33
54512;BME280;40419;47.438;19.026;2023-07-20T00:55:30;99101.22;;;22.48;89.93
54512;BME280;40419;47.438;19.026;2023-07-20T00:58:01;99096.63;;;22.58;88.25
54512;BME280;40419;47.438;19.026;2023-07-20T01:00:32;99092.69;;;22.64;88.00
54512;BME280;40419;47.438;19.026;2023-07-20T01:02:57;99085.88;;;22.75;86.33
54512;BME280;40419;47.438;19.026;2023-07-20T01:11:15;99083.75;;;22.86;86.40
54512;BME280;40419;47.438;19.026;2023-07-20T01:13:43;99067.69;;;22.88;86.40
54512;BME280;40419;47.438;19.026;2023-07-20T01:16:09;99061.34;;;22.74;86.87
54512;BME280;40419;47.438;19.026;2023-07-20T01:18:36;99071.66;;;22.82;87.49
54512;BME280;40419;47.438;19.026;2023-07-20T01:21:17;99071.47;;;22.78;87.27
54512;BME280;40419;47.438;19.026;2023-07-20T01:24:23;99065.53;;;22.71;87.45
54512;BME280;40419;47.438;19.026;2023-07-20T01:32:17;99073.28;;;22.69;89.28
54512;BME280;40419;47.438;19.026;2023-07-20T01:34:47;99080.84;;;22.44;90.04
54512;BME280;40419;47.438;19.026;2023-07-20T01:37:15;99068.91;;;22.49;89.84
54512;BME280;40419;47.438;19.026;2023-07-20T01:39:42;99072.31;;;22.60;89.79
54512;BME280;40419;47.438;19.026;2023-07-20T01:42:11;99077.28;;;22.44;90.70
54512;BME280;40419;47.438;19.026;2023-07-20T01:44:37;99076.44;;;22.43;90.45
54512;BME280;40419;47.438;19.026;2023-07-20T01:47:05;99081.16;;;22.43;90.87
54512;BME280;40419;47.438;19.026;2023-07-20T01:49:33;99081.97;;;22.43;90.95
54512;BME280;40419;47.438;19.026;2023-07-20T01:52:04;99094.00;;;22.34;92.33
54512;BME280;40419;47.438;19.026;2023-07-20T01:54:29;99097.81;;;22.38;91.47
54512;BME280;40419;47.438;19.026;2023-07-20T01:57:00;99100.38;;;22.29;92.29
54512;BME280;40419;47.438;19.026;2023-07-20T01:59:31;99107.28;;;22.32;92.38
54512;BME280;40419;47.438;19.026;2023-07-20T02:01:59;99109.63;;;22.38;91.93
54512;BME280;40419;47.438;19.026;2023-07-20T02:04:25;99113.50;;;22.37;92.06
54512;BME280;40419;47.438;19.026;2023-07-20T02:06:50;99106.13;;;22.52;91.41
54512;BME280;40419;47.438;19.026;2023-07-20T02:09:18;99114.56;;;22.41;91.57
54512;BME280;40419;47.438;19.026;2023-07-20T02:11:45;99113.59;;;22.51;90.99
54512;BME280;40419;47.438;19.026;2023-07-20T02:14:13;99117.25;;;22.46;90.60
54512;BME280;40419;47.438;19.026;2023-07-20T02:16:41;99108.53;;;22.39;91.94
54512;BME280;40419;47.438;19.026;2023-07-20T02:19:16;99106.13;;;22.52;91.48
54512;BME280;40419;47.438;19.026;2023-07-20T02:21:47;99108.75;;;22.43;90.27
54512;BME280;40419;47.438;19.026;2023-07-20T02:24:18;99105.84;;;22.34;91.05
54512;BME280;40419;47.438;19.026;2023-07-20T02:26:46;99109.13;;;22.36;90.84
54512;BME280;40419;47.438;19.026;2023-07-20T02:29:14;99105.59;;;22.30;91.62
54512;BME280;40419;47.438;19.026;2023-07-20T02:31:42;99118.03;;;22.28;91.02
54512;BME280;40419;47.438;19.026;2023-07-20T02:34:10;99119.47;;;22.25;91.39
54512;BME280;40419;47.438;19.026;2023-07-20T02:36:38;99118.31;;;22.26;91.47
54512;BME280;40419;47.438;19.026;2023-07-20T02:39:06;99117.38;;;22.17;91.71
54512;BME280;40419;47.438;19.026;2023-07-20T02:41:33;99115.81;;;22.11;92.42
54512;BME280;40419;47.438;19.026;2023-07-20T02:44:00;99117.31;;;22.22;91.37
54512;BME280;40419;47.438;19.026;2023-07-20T02:46:27;99114.81;;;22.21;89.82
54512;BME280;40419;47.438;19.026;2023-07-20T02:48:57;99112.91;;;22.21;89.94
54512;BME280;40419;47.438;19.026;2023-07-20T02:51:25;99114.97;;;22.29;89.17
54512;BME280;40419;47.438;19.026;2023-07-20T02:53:51;99117.97;;;22.14;89.87
54512;BME280;40419;47.438;19.026;2023-07-20T02:56:21;99117.66;;;22.16;90.14
54512;BME280;40419;47.438;19.026;2023-07-20T02:58:54;99110.19;;;22.16;90.60
54512;BME280;40419;47.438;19.026;2023-07-20T03:01:22;99117.75;;;22.10;90.88
54512;BME280;40419;47.438;19.026;2023-07-20T03:03:48;99115.41;;;22.18;91.60
54512;BME280;40419;47.438;19.026;2023-07-20T03:06:16;99117.94;;;21.95;92.47
54512;BME280;40419;47.438;19.026;2023-07-20T03:08:46;99125.72;;;22.12;91.70
54512;BME280;40419;47.438;19.026;2023-07-20T03:11:18;99130.56;;;22.20;90.81
54512;BME280;40419;47.438;19.026;2023-07-20T03:13:49;99134.19;;;21.97;92.61
54512;BME280;40419;47.438;19.026;2023-07-20T03:16:18;99135.66;;;21.89;93.00
54512;BME280;40419;47.438;19.026;2023-07-20T03:18:44;99142.06;;;21.84;93.29
54512;BME280;40419;47.438;19.026;2023-07-20T03:21:10;99146.09;;;21.92;93.57
54512;BME280;40419;47.438;19.026;2023-07-20T03:23:39;99145.78;;;21.74;93.88
54512;BME280;40419;47.438;19.026;2023-07-20T03:26:08;99150.41;;;21.79;94.33
54512;BME280;40419;47.438;19.026;2023-07-20T03:28:37;99153.66;;;21.81;93.95
54512;BME280;40419;47.438;19.026;2023-07-20T03:31:07;99146.28;;;21.76;93.85
54512;BME280;40419;47.438;19.026;2023-07-20T03:33:38;99153.66;;;21.81;92.67
54512;BME280;40419;47.438;19.026;2023-07-20T03:36:07;99159.72;;;21.83;92.57
54512;BME280;40419;47.438;19.026;2023-07-20T03:38:41;99170.78;;;21.78;93.28
54512;BME280;40419;47.438;19.026;2023-07-20T03:41:12;99173.16;;;21.66;93.97
54512;BME280;40419;47.438;19.026;2023-07-20T03:43:38;99173.06;;;21.71;93.88
54512;BME280;40419;47.438;19.026;2023-07-20T03:46:08;99179.16;;;21.68;94.86
54512;BME280;40419;47.438;19.026;2023-07-20T03:48:36;99186.72;;;21.81;94.00
54512;BME280;40419;47.438;19.026;2023-07-20T03:51:12;99181.00;;;21.77;94.04
54512;BME280;40419;47.438;19.026;2023-07-20T03:53:37;99190.03;;;21.83;93.58
54512;BME280;40419;47.438;19.026;2023-07-20T03:56:05;99187.63;;;21.76;94.81
54512;BME280;40419;47.438;19.026;2023-07-20T03:58:33;99190.47;;;21.90;93.30
54512;BME280;40419;47.438;19.026;2023-07-20T04:00:58;99184.63;;;21.73;93.83
54512;BME280;40419;47.438;19.026;2023-07-20T04:03:24;99183.63;;;21.88;89.97
54512;BME280;40419;47.438;19.026;2023-07-20T04:05:53;99189.47;;;22.05;91.69
54512;BME280;40419;47.438;19.026;2023-07-20T04:08:21;99184.84;;;22.01;92.14
54512;BME280;40419;47.438;19.026;2023-07-20T04:10:51;99178.56;;;21.95;91.41
54512;BME280;40419;47.438;19.026;2023-07-20T04:13:16;99192.00;;;22.02;90.17
54512;BME280;40419;47.438;19.026;2023-07-20T04:15:44;99186.41;;;22.07;86.96
54512;BME280;40419;47.438;19.026;2023-07-20T04:18:15;99181.00;;;22.21;86.93
54512;BME280;40419;47.438;19.026;2023-07-20T04:20:40;99178.38;;;22.10;85.41
54512;BME280;40419;47.438;19.026;2023-07-20T04:23:10;99164.59;;;22.29;86.53
54512;BME280;40419;47.438;19.026;2023-07-20T04:25:44;99163.19;;;22.13;84.41
54512;BME280;40419;47.438;19.026;2023-07-20T04:28:14;99165.69;;;22.34;83.47
54512;BME280;40419;47.438;19.026;2023-07-20T04:30:49;99160.97;;;22.53;81.54
54512;BME280;40419;47.438;19.026;2023-07-20T04:33:17;99158.53;;;22.71;78.15
54512;BME280;40419;47.438;19.026;2023-07-20T04:35:50;99172.31;;;22.71;76.36
54512;BME280;40419;47.438;19.026;2023-07-20T04:38:20;99179.91;;;22.79;76.63
54512;BME280;40419;47.438;19.026;2023-07-20T04:40:52;99175.03;;;22.90;75.47
54512;BME280;40419;47.438;19.026;2023-07-20T04:43:20;99174.63;;;23.15;71.93
54512;BME280;40419;47.438;19.026;2023-07-20T04:45:48;99180.38;;;23.19;73.61
54512;BME280;40419;47.438;19.026;2023-07-20T04:48:18;99177.22;;;23.40;73.59
54512;BME280;40419;47.438;19.026;2023-07-20T04:50:49;99184.31;;;23.60;73.28
54512;BME280;40419;47.438;19.026;2023-07-20T04:53:15;99187.47;;;23.67;72.87
54512;BME280;40419;47.438;19.026;2023-07-20T04:55:50;99186.66;;;23.80;72.59
54512;BME280;40419;47.438;19.026;2023-07-20T04:58:23;99177.06;;;24.05;71.10
54512;BME280;40419;47.438;19.026;2023-07-20T05:00:50;99178.97;;;24.05;71.27
54512;BME280;40419;47.438;19.026;2023-07-20T05:03:16;99173.16;;;24.06;71.44
54512;BME280;40419;47.438;19.026;2023-07-20T05:05:48;99181.06;;;23.99;70.84
54512;BME280;40419;47.438;19.026;2023-07-20T05:08:16;99182.78;;;24.09;69.45
54512;BME280;40419;47.438;19.026;2023-07-20T05:10:46;99188.91;;;24.06;69.91
54512;BME280;40419;47.438;19.026;2023-07-20T05:13:14;99192.28;;;24.31;67.91
54512;BME280;40419;47.438;19.026;2023-07-20T05:15:39;99192.44;;;23.98;68.97
54512;BME280;40419;47.438;19.026;2023-07-20T05:18:14;99188.63;;;24.08;70.60
54512;BME280;40419;47.438;19.026;2023-07-20T05:20:48;99186.38;;;23.96;69.09
54512;BME280;40419;47.438;19.026;2023-07-20T05:23:18;99196.06;;;23.79;69.86
54512;BME280;40419;47.438;19.026;2023-07-20T05:25:45;99201.41;;;23.89;71.77
54512;BME280;40419;47.438;19.026;2023-07-20T05:28:10;99199.59;;;24.13;70.40
54512;BME280;40419;47.438;19.026;2023-07-20T05:30:36;99190.44;;;24.12;69.70
54512;BME280;40419;47.438;19.026;2023-07-20T05:33:01;99191.06;;;24.09;68.47
54512;BME280;40419;47.438;19.026;2023-07-20T05:35:36;99193.28;;;24.35;66.92
54512;BME280;40419;47.438;19.026;2023-07-20T05:38:01;99194.13;;;24.08;67.48
54512;BME280;40419;47.438;19.026;2023-07-20T05:40:30;99192.28;;;24.17;66.88
54512;BME280;40419;47.438;19.026;2023-07-20T05:42:56;99210.41;;;24.23;66.50
54512;BME280;40419;47.438;19.026;2023-07-20T05:45:25;99201.53;;;24.49;64.91
54512;BME280;40419;47.438;19.026;2023-07-20T05:47:52;99199.44;;;24.32;66.75
54512;BME280;40419;47.438;19.026;2023-07-20T05:50:18;99207.59;;;24.51;64.16
54512;BME280;40419;47.438;19.026;2023-07-20T05:52:43;99201.03;;;24.61;63.70
54512;BME280;40419;47.438;19.026;2023-07-20T05:55:14;99201.53;;;24.63;66.09
54512;BME280;40419;47.438;19.026;2023-07-20T05:57:42;99213.69;;;24.75;64.98
54512;BME280;40419;47.438;19.026;2023-07-20T06:00:11;99207.09;;;24.85;64.11
54512;BME280;40419;47.438;19.026;2023-07-20T06:02:41;99204.75;;;25.01;61.94
54512;BME280;40419;47.438;19.026;2023-07-20T06:05:07;99204.75;;;24.79;61.87
54512;BME280;40419;47.438;19.026;2023-07-20T06:07:38;99209.16;;;24.80;60.00
54512;BME280;40419;47.438;19.026;2023-07-20T06:10:06;99212.13;;;25.06;60.92
54512;BME280;40419;47.438;19.026;2023-07-20T06:12:39;99211.16;;;25.10;60.00
54512;BME280;40419;47.438;19.026;2023-07-20T06:15:24;99207.66;;;25.19;62.21
54512;BME280;40419;47.438;19.026;2023-07-20T06:17:54;99216.91;;;25.37;59.54
54512;BME280;40419;47.438;19.026;2023-07-20T06:20:25;99213.56;;;25.49;59.12
54512;BME280;40419;47.438;19.026;2023-07-20T06:22:58;99214.19;;;25.45;58.92
54512;BME280;40419;47.438;19.026;2023-07-20T06:25:26;99218.59;;;25.46;59.85
54512;BME280;40419;47.438;19.026;2023-07-20T06:27:55;99224.84;;;25.29;59.15
54512;BME280;40419;47.438;19.026;2023-07-20T06:30:21;99229.78;;;25.64;56.48
54512;BME280;40419;47.438;19.026;2023-07-20T06:32:46;99232.72;;;25.68;54.42
54512;BME280;40419;47.438;19.026;2023-07-20T06:35:15;99227.31;;;25.62;56.54
54512;BME280;40419;47.438;19.026;2023-07-20T06:37:43;99233.13;;;25.83;58.09
54512;BME280;40419;47.438;19.026;2023-07-20T06:40:11;99239.19;;;25.94;55.11
54512;BME280;40419;47.438;19.026;2023-07-20T06:42:37;99240.00;;;25.95;57.16
54512;BME280;40419;47.438;19.026;2023-07-20T06:45:05;99245.81;;;26.16;54.79
54512;BME280;40419;47.438;19.026;2023-07-20T06:47:33;99252.31;;;26.11;54.55
54512;BME280;40419;47.438;19.026;2023-07-20T06:49:58;99263.16;;;25.90;55.50
54512;BME280;40419;47.438;19.026;2023-07-20T06:52:29;99260.19;;;26.27;53.84
54512;BME280;40419;47.438;19.026;2023-07-20T06:54:55;99263.94;;;26.22;53.84
54512;BME280;40419;47.438;19.026;2023-07-20T06:57:23;99275.34;;;26.12;55.88
54512;BME280;40419;47.438;19.026;2023-07-20T06:59:48;99258.50;;;26.08;53.69
54512;BME280;40419;47.438;19.026;2023-07-20T07:02:14;99268.97;;;26.11;53.79
54512;BME280;40419;47.438;19.026;2023-07-20T07:04:42;99270.56;;;26.04;55.62
54512;BME280;40419;47.438;19.026;2023-07-20T07:07:13;99267.69;;;26.17;55.50
54512;BME280;40419;47.438;19.026;2023-07-20T07:09:39;99276.41;;;26.42;54.04
54512;BME280;40419;47.438;19.026;2023-07-20T07:12:07;99278.31;;;26.24;54.33
54512;BME280;40419;47.438;19.026;2023-07-20T07:14:35;99280.94;;;26.29;52.75
54512;BME280;40419;47.438;19.026;2023-07-20T07:17:03;99284.56;;;26.39;53.29
54512;BME280;40419;47.438;19.026;2023-07-20T07:19:31;99285.50;;;26.25;50.60
54512;BME280;40419;47.438;19.026;2023-07-20T07:21:59;99282.59;;;26.30;51.29
54512;BME280;40419;47.438;19.026;2023-07-20T07:24:30;99288.47;;;26.46;50.61
54512;BME280;40419;47.438;19.026;2023-07-20T07:26:59;99280.19;;;26.64;48.29
54512;BME280;40419;47.438;19.026;2023-07-20T07:29:30;99278.38;;;26.50;49.16
54512;BME280;40419;47.438;19.026;2023-07-20T07:31:58;99284.75;;;26.60;50.56
54512;BME280;40419;47.438;19.026;2023-07-20T07:34:24;99277.91;;;26.66;48.95
54512;BME280;40419;47.438;19.026;2023-07-20T07:36:52;99284.81;;;26.77;47.59
54512;BME280;40419;47.438;19.026;2023-07-20T07:39:22;99290.44;;;26.46;47.32
54512;BME280;40419;47.438;19.026;2023-07-20T07:41:50;99299.47;;;26.60;48.82
54512;BME280;40419;47.438;19.026;2023-07-20T07:44:17;99295.28;;;26.80;46.78
54512;BME280;40419;47.438;19.026;2023-07-20T07:46:45;99292.34;;;26.68;46.58
54512;BME280;40419;47.438;19.026;2023-07-20T07:49:11;99292.94;;;26.56;47.44
54512;BME280;40419;47.438;19.026;2023-07-20T07:51:38;99295.53;;;26.61;47.38
54512;BME280;40419;47.438;19.026;2023-07-20T07:54:04;99287.38;;;26.56;47.22
54512;BME280;40419;47.438;19.026;2023-07-20T07:56:32;99287.06;;;26.58;48.90
54512;BME280;40419;47.438;19.026;2023-07-20T07:59:04;99280.81;;;26.52;47.84
54512;BME280;40419;47.438;19.026;2023-07-20T08:01:29;99286.06;;;26.62;47.91
54512;BME280;40419;47.438;19.026;2023-07-20T08:03:55;99293.16;;;26.95;49.18
54512;BME280;40419;47.438;19.026;2023-07-20T08:06:25;99291.34;;;26.99;46.65
54512;BME280;40419;47.438;19.026;2023-07-20T08:08:51;99284.81;;;27.12;46.87
54512;BME280;40419;47.438;19.026;2023-07-20T08:11:19;99288.59;;;26.99;46.79
54512;BME280;40419;47.438;19.026;2023-07-20T08:13:49;99287.59;;;26.95;48.28
54512;BME280;40419;47.438;19.026;2023-07-20T08:16:15;99294.66;;;27.36;46.81
54512;BME280;40419;47.438;19.026;2023-07-20T08:18:43;99282.38;;;27.28;45.51
54512;BME280;40419;47.438;19.026;2023-07-20T08:21:08;99286.38;;;27.66;44.66
54512;BME280;40419;47.438;19.026;2023-07-20T08:23:38;99288.41;;;27.48;44.40
54512;BME280;40419;47.438;19.026;2023-07-20T08:26:06;99278.88;;;27.75;45.22
54512;BME280;40419;47.438;19.026;2023-07-20T08:28:34;99276.81;;;28.02;44.46
54512;BME280;40419;47.438;19.026;2023-07-20T08:30:59;99282.34;;;28.10;43.40
54512;BME280;40419;47.438;19.026;2023-07-20T08:33:28;99283.81;;;28.08;43.23
54512;BME280;40419;47.438;19.026;2023-07-20T08:35:58;99297.28;;;28.36;42.96
54512;BME280;40419;47.438;19.026;2023-07-20T08:38:24;99296.31;;;28.32;43.28
54512;BME280;40419;47.438;19.026;2023-07-20T08:40:51;99296.44;;;28.35;43.20
54512;BME280;40419;47.438;19.026;2023-07-20T08:43:19;99290.88;;;28.35;42.11
54512;BME280;40419;47.438;19.026;2023-07-20T08:45:47;99300.44;;;28.55;42.19
54512;BME280;40419;47.438;19.026;2023-07-20T08:48:14;99300.28;;;28.60;42.96
54512;BME280;40419;47.438;19.026;2023-07-20T08:50:41;99297.03;;;28.79;42.89
54512;BME280;40419;47.438;19.026;2023-07-20T08:53:10;99309.47;;;28.82;40.70
54512;BME280;40419;47.438;19.026;2023-07-20T08:55:44;99302.47;;;28.46;40.40
54512;BME280;40419;47.438;19.026;2023-07-20T08:58:15;99313.50;;;28.34;41.17
54512;BME280;40419;47.438;19.026;2023-07-20T09:00:44;99312.03;;;28.66;39.45
54512;BME280;40419;47.438;19.026;2023-07-20T09:03:11;99320.41;;;28.27;39.67
54512;BME280;40419;47.438;19.026;2023-07-20T09:05:37;99310.00;;;28.45;40.81
54512;BME280;40419;47.438;19.026;2023-07-20T09:08:09;99309.09;;;28.62;39.73
54512;BME280;40419;47.438;19.026;2023-07-20T09:10:40;99318.97;;;28.60;40.67
54512;BME280;40419;47.438;19.026;2023-07-20T09:13:05;99321.19;;;28.67;40.79
54512;BME280;40419;47.438;19.026;2023-07-20T09:15:33;99313.88;;;28.53;41.08
54512;BME280;40419;47.438;19.026;2023-07-20T09:18:03;99324.16;;;28.70;41.00
54512;BME280;40419;47.438;19.026;2023-07-20T09:20:31;99323.84;;;28.63;40.83
54512;BME280;40419;47.438;19.026;2023-07-20T09:22:57;99327.19;;;28.77;40.55
54512;BME280;40419;47.438;19.026;2023-07-20T09:25:22;99320.94;;;28.80;39.72
54512;BME280;40419;47.438;19.026;2023-07-20T09:27:52;99322.63;;;28.73;39.83
54512;BME280;40419;47.438;19.026;2023-07-20T09:30:24;99327.59;;;28.67;40.00
54512;BME280;40419;47.438;19.026;2023-07-20T09:32:50;99317.91;;;28.73;38.75
54512;BME280;40419;47.438;19.026;2023-07-20T09:35:19;99318.88;;;28.39;40.41
54512;BME280;40419;47.438;19.026;2023-07-20T09:37:54;99321.88;;;28.55;40.03
54512;BME280;40419;47.438;19.026;2023-07-20T09:40:23;99323.03;;;28.84;40.81
54512;BME280;40419;47.438;19.026;2023-07-20T09:42:53;99330.47;;;28.79;39.97
54512;BME280;40419;47.438;19.026;2023-07-20T09:45:42;99321.97;;;28.97;40.37
54512;BME280;40419;47.438;19.026;2023-07-20T09:48:14;99321.38;;;28.91;41.63
54512;BME280;40419;47.438;19.026;2023-07-20T09:50:50;99328.16;;;28.81;41.02
54512;BME280;40419;47.438;19.026;2023-07-20T09:53:17;99319.75;;;28.90;40.19
54512;BME280;40419;47.438;19.026;2023-07-20T09:55:51;99324.56;;;29.02;40.46
54512;BME280;40419;47.438;19.026;2023-07-20T09:58:17;99320.34;;;28.75;40.49
54512;BME280;40419;47.438;19.026;2023-07-20T10:00:44;99317.28;;;28.29;40.31
54512;BME280;40419;47.438;19.026;2023-07-20T10:03:14;99329.84;;;28.35;39.72
54512;BME280;40419;47.438;19.026;2023-07-20T10:05:45;99331.44;;;28.15;40.08
54512;BME280;40419;47.438;19.026;2023-07-20T10:08:18;99332.50;;;27.84;40.48
54512;BME280;40419;47.438;19.026;2023-07-20T10:10:47;99337.72;;;28.33;39.87
54512;BME280;40419;47.438;19.026;2023-07-20T10:13:23;99346.47;;;28.53;41.35
54512;BME280;40419;47.438;19.026;2023-07-20T10:15:56;99345.19;;;28.80;40.54
54512;BME280;40419;47.438;19.026;2023-07-20T10:20:57;99337.25;;;28.91;41.17
54512;BME280;40419;47.438;19.026;2023-07-20T10:23:26;99353.41;;;29.27;40.19
54512;BME280;40419;47.438;19.026;2023-07-20T10:25:53;99357.66;;;29.04;39.27
54512;BME280;40419;47.438;19.026;2023-07-20T10:28:22;99367.03;;;28.78;39.78
54512;BME280;40419;47.438;19.026;2023-07-20T10:30:50;99354.19;;;29.07;40.36
54512;BME280;40419;47.438;19.026;2023-07-20T10:33:17;99360.75;;;29.11;41.87
54512;BME280;40419;47.438;19.026;2023-07-20T10:36:01;99353.91;;;28.99;40.87
54512;BME280;40419;47.438;19.026;2023-07-20T10:43:44;99360.84;;;29.14;41.51
54512;BME280;40419;47.438;19.026;2023-07-20T10:46:42;99358.63;;;28.87;41.24
54512;BME280;40419;47.438;19.026;2023-07-20T10:49:14;99357.09;;;28.59;42.87
54512;BME280;40419;47.438;19.026;2023-07-20T10:51:45;99344.00;;;28.21;43.25
54512;BME280;40419;47.438;19.026;2023-07-20T10:54:33;99350.78;;;27.85;43.54
54512;BME280;40419;47.438;19.026;2023-07-20T10:57:23;99343.16;;;28.29;44.15
54512;BME280;40419;47.438;19.026;2023-07-20T11:00:08;99340.72;;;28.28;42.87
54512;BME280;40419;47.438;19.026;2023-07-20T11:02:47;99345.47;;;28.66;44.73
54512;BME280;40419;47.438;19.026;2023-07-20T11:08:10;99337.88;;;28.96;42.58
54512;BME280;40419;47.438;19.026;2023-07-20T11:10:45;99342.72;;;28.87;40.89
54512;BME280;40419;47.438;19.026;2023-07-20T11:16:03;99332.03;;;28.29;41.55
54512;BME280;40419;47.438;19.026;2023-07-20T11:18:33;99344.66;;;28.66;40.61
54512;BME280;40419;47.438;19.026;2023-07-20T11:21:09;99337.00;;;29.05;38.83
54512;BME280;40419;47.438;19.026;2023-07-20T11:23:43;99342.47;;;28.71;39.83
54512;BME280;40419;47.438;19.026;2023-07-20T11:26:08;99320.59;;;28.22;40.68
54512;BME280;40419;47.438;19.026;2023-07-20T11:28:39;99335.41;;;28.35;40.38
54512;BME280;40419;47.438;19.026;2023-07-20T11:31:07;99330.53;;;28.71;40.94
54512;BME280;40419;47.438;19.026;2023-07-20T11:33:33;99334.59;;;28.73;40.97
54512;BME280;40419;47.438;19.026;2023-07-20T11:36:01;99336.63;;;28.64;39.13
54512;BME280;40419;47.438;19.026;2023-07-20T11:38:27;99341.47;;;28.97;38.68
54512;BME280;40419;47.438;19.026;2023-07-20T11:40:53;99350.75;;;28.50;40.02
54512;BME280;40419;47.438;19.026;2023-07-20T11:43:18;99341.97;;;28.39;40.42
54512;BME280;40419;47.438;19.026;2023-07-20T11:45:48;99333.75;;;28.13;38.65
54512;BME280;40419;47.438;19.026;2023-07-20T11:48:18;99341.00;;;27.97;38.77
54512;BME280;40419;47.438;19.026;2023-07-20T11:50:46;99333.41;;;28.15;38.57
54512;BME280;40419;47.438;19.026;2023-07-20T11:53:14;99334.97;;;28.24;40.34
54512;BME280;40419;47.438;19.026;2023-07-20T11:55:44;99339.97;;;28.40;40.12
54512;BME280;40419;47.438;19.026;2023-07-20T11:58:12;99336.72;;;28.38;40.90
54512;BME280;40419;47.438;19.026;2023-07-20T12:00:47;99330.53;;;28.32;40.55
54512;BME280;40419;47.438;19.026;2023-07-20T12:03:15;99328.69;;;28.45;39.97
54512;BME280;40419;47.438;19.026;2023-07-20T12:05:40;99331.31;;;28.71;37.71
54512;BME280;40419;47.438;19.026;2023-07-20T12:08:07;99338.06;;;28.70;37.96
54512;BME280;40419;47.438;19.026;2023-07-20T12:10:32;99327.00;;;28.53;37.78
54512;BME280;40419;47.438;19.026;2023-07-20T12:13:02;99330.06;;;28.69;38.71
54512;BME280;40419;47.438;19.026;2023-07-20T12:15:31;99324.78;;;28.37;38.90
54512;BME280;40419;47.438;19.026;2023-07-20T12:18:00;99332.69;;;28.56;39.76
54512;BME280;40419;47.438;19.026;2023-07-20T12:20:31;99323.19;;;28.57;40.07
54512;BME280;40419;47.438;19.026;2023-07-20T12:23:04;99304.75;;;28.44;39.34
54512;BME280;40419;47.438;19.026;2023-07-20T12:25:46;99327.19;;;28.77;39.63
54512;BME280;40419;47.438;19.026;2023-07-20T12:28:17;99315.50;;;28.63;38.66
54512;BME280;40419;47.438;19.026;2023-07-20T12:30:44;99319.84;;;28.43;39.34
54512;BME280;40419;47.438;19.026;2023-07-20T12:33:10;99314.78;;;28.36;38.68
54512;BME280;40419;47.438;19.026;2023-07-20T12:35:37;99313.06;;;28.53;38.41
54512;BME280;40419;47.438;19.026;2023-07-20T12:38:02;99317.75;;;28.70;38.07
54512;BME280;40419;47.438;19.026;2023-07-20T12:40:31;99311.94;;;28.54;38.39
54512;BME280;40419;47.438;19.026;2023-07-20T12:42:57;99313.34;;;28.69;36.90
54512;BME280;40419;47.438;19.026;2023-07-20T12:45:23;99325.97;;;28.66;37.74
54512;BME280;40419;47.438;19.026;2023-07-20T12:47:51;99314.50;;;28.59;37.39
54512;BME280;40419;47.438;19.026;2023-07-20T12:50:16;99314.56;;;28.80;36.79
54512;BME280;40419;47.438;19.026;2023-07-20T12:52:42;99311.22;;;28.66;34.98
54512;BME280;40419;47.438;19.026;2023-07-20T12:55:10;99315.66;;;28.58;35.72
54512;BME280;40419;47.438;19.026;2023-07-20T12:57:36;99323.69;;;28.59;35.49
54512;BME280;40419;47.438;19.026;2023-07-20T13:00:05;99307.50;;;28.53;36.01
54512;BME280;40419;47.438;19.026;2023-07-20T13:02:34;99308.56;;;28.69;34.92
54512;BME280;40419;47.438;19.026;2023-07-20T13:05:04;99316.53;;;28.79;34.55
54512;BME280;40419;47.438;19.026;2023-07-20T13:07:31;99310.91;;;28.58;34.85
54512;BME280;40419;47.438;19.026;2023-07-20T13:10:00;99317.84;;;28.52;35.86
54512;BME280;40419;47.438;19.026;2023-07-20T13:12:28;99320.06;;;28.68;36.08
54512;BME280;40419;47.438;19.026;2023-07-20T13:14:56;99309.94;;;28.54;36.00
54512;BME280;40419;47.438;19.026;2023-07-20T13:17:22;99306.41;;;28.45;36.95
54512;BME280;40419;47.438;19.026;2023-07-20T13:19:50;99301.25;;;28.64;36.17
54512;BME280;40419;47.438;19.026;2023-07-20T13:22:23;99308.19;;;28.79;35.56
54512;BME280;40419;47.438;19.026;2023-07-20T13:24:48;99297.44;;;28.69;34.95